createdAt,value
2023-01-17T00:00:32.713Z,6.10
2023-01-17T00:01:44.224Z,9.32
2023-01-17T00:02:55.735Z,9.20
2023-01-17T00:04:25.886Z,8.07
2023-01-17T00:05:58.224Z,8.23
2023-01-17T00:07:29.580Z,5.53
2023-01-17T00:08:59.395Z,10.63
2023-01-17T00:10:12.212Z,7.07
2023-01-17T00:11:23.682Z,11.45
2023-01-17T00:12:35.839Z,8.95
2023-01-17T00:13:47.315Z,5.43
2023-01-17T00:14:59.416Z,7.53
2023-01-17T00:16:10.953Z,6.90
2023-01-17T00:17:23.165Z,6.20
2023-01-17T00:18:34.618Z,6.85
2023-01-17T00:20:04.383Z,7.15
2023-01-17T00:21:34.282Z,8.35
2023-01-17T00:23:04.110Z,7.00
2023-01-17T00:24:34.152Z,6.03
2023-01-17T00:26:03.487Z,4.63
2023-01-17T00:27:14.891Z,3.92
2023-01-17T00:28:26.757Z,4.95
2023-01-17T00:29:38.108Z,5.95
2023-01-17T00:30:49.473Z,10.23
2023-01-17T00:32:00.893Z,7.18
2023-01-17T00:33:12.805Z,7.13
2023-01-17T00:34:24.216Z,7.13
2023-01-17T00:35:35.658Z,10.02
2023-01-17T00:36:47.059Z,7.25
2023-01-17T00:38:07.299Z,8.02
2023-01-17T00:39:18.692Z,6.03
2023-01-17T00:40:30.723Z,5.13
2023-01-17T00:41:42.083Z,6.90
2023-01-17T00:42:53.500Z,6.97
2023-01-17T00:44:23.461Z,4.43
2023-01-17T00:45:53.253Z,4.07
2023-01-17T00:47:22.962Z,7.15
2023-01-17T00:48:53.327Z,7.63
2023-01-17T00:50:23.763Z,8.73
2023-01-17T00:51:54.708Z,7.45
2023-01-17T00:53:24.658Z,5.03
2023-01-17T00:54:54.337Z,8.07
2023-01-17T00:56:25.113Z,5.97
2023-01-17T00:57:55.069Z,5.65
2023-01-17T00:59:25.192Z,5.68
2023-01-17T01:00:55.143Z,5.32
2023-01-17T01:02:27.584Z,5.47
2023-01-17T01:03:58.201Z,6.05
2023-01-17T01:05:28.646Z,6.88
2023-01-17T01:06:58.458Z,7.03
2023-01-17T01:08:34.953Z,5.60
2023-01-17T01:10:05.121Z,5.53
2023-01-17T01:11:36.688Z,5.28
2023-01-17T01:13:06.828Z,7.63
2023-01-17T01:14:36.781Z,10.50
2023-01-17T01:16:06.728Z,10.90
2023-01-17T01:17:36.938Z,10.90
2023-01-17T01:19:07.280Z,12.07
2023-01-17T01:20:37.230Z,7.80
2023-01-17T01:22:07.087Z,12.23
2023-01-17T01:23:37.033Z,8.90
2023-01-17T01:25:07.238Z,9.02
2023-01-17T01:26:37.382Z,10.43
2023-01-17T01:28:07.693Z,11.23
2023-01-17T01:29:37.497Z,8.52
2023-01-17T01:31:07.701Z,7.15
2023-01-17T01:32:37.782Z,7.57
2023-01-17T01:33:50.877Z,6.97
2023-01-17T01:35:02.343Z,5.28
2023-01-17T01:36:14.142Z,6.03
2023-01-17T01:37:25.581Z,5.80
2023-01-17T01:38:37.149Z,4.03
2023-01-17T01:39:48.559Z,5.05
2023-01-17T01:40:59.975Z,5.05
2023-01-17T01:42:17.932Z,4.93
2023-01-17T01:43:41.312Z,3.25
2023-01-17T01:44:53.502Z,5.40
2023-01-17T01:46:05.223Z,3.80
2023-01-17T01:47:30.571Z,5.88
2023-01-17T01:48:44.201Z,4.50
2023-01-17T01:49:55.759Z,4.82
2023-01-17T01:51:09.752Z,3.65
2023-01-17T01:52:22.664Z,9.27
2023-01-17T01:53:35.802Z,8.07
2023-01-17T01:54:53.645Z,5.38
2023-01-17T01:56:06.770Z,4.13
2023-01-17T01:57:19.666Z,4.93
2023-01-17T01:58:33.612Z,5.28
2023-01-17T01:59:48.930Z,7.05
2023-01-17T02:01:00.449Z,5.68
2023-01-17T02:02:12.045Z,5.10
2023-01-17T02:03:25.957Z,5.38
2023-01-17T02:04:37.752Z,8.98
2023-01-17T02:05:49.220Z,9.55
2023-01-17T02:07:04.077Z,6.40
2023-01-17T02:08:17.289Z,6.70
2023-01-17T02:09:28.773Z,8.70
2023-01-17T02:10:43.975Z,11.60
2023-01-17T02:11:55.696Z,8.20
2023-01-17T02:13:07.803Z,9.90
2023-01-17T02:14:20.649Z,8.30
2023-01-17T02:15:52.359Z,8.10
2023-01-17T02:17:16.814Z,12.07
2023-01-17T02:18:39.280Z,7.72
2023-01-17T02:19:50.694Z,5.32
2023-01-17T02:21:04.965Z,4.90
2023-01-17T02:22:16.405Z,5.35
2023-01-17T02:23:37.128Z,4.35
2023-01-17T02:25:07.261Z,6.50
2023-01-17T02:26:30.898Z,6.38
2023-01-17T02:28:05.762Z,7.45
2023-01-17T02:29:29.300Z,7.88
2023-01-17T02:30:48.248Z,7.22
2023-01-17T02:32:14.521Z,10.77
2023-01-17T02:33:38.604Z,10.35
2023-01-17T02:34:50.023Z,14.02
2023-01-17T02:36:16.695Z,9.98
2023-01-17T02:37:41.413Z,8.07
2023-01-17T02:38:57.911Z,6.40
2023-01-17T02:40:27.673Z,5.47
2023-01-17T02:41:40.836Z,11.68
2023-01-17T02:42:58.345Z,8.40
2023-01-17T02:44:10.555Z,5.82
2023-01-17T02:45:22.007Z,6.10
2023-01-17T02:46:33.483Z,7.80
2023-01-17T02:47:45.326Z,6.97
2023-01-17T02:48:57.847Z,7.43
2023-01-17T02:50:13.901Z,8.38
2023-01-17T02:51:40.572Z,7.18
2023-01-17T02:52:55.076Z,5.30
2023-01-17T02:54:15.289Z,6.85
2023-01-17T02:55:39.590Z,16.00
2023-01-17T02:56:53.823Z,6.60
2023-01-17T02:58:05.282Z,4.03
2023-01-17T02:59:19.713Z,5.68
2023-01-17T03:00:50.266Z,9.45
2023-01-17T03:02:22.126Z,4.65
2023-01-17T03:03:38.927Z,5.57
2023-01-17T03:05:05.759Z,7.35
2023-01-17T03:06:18.839Z,5.07
2023-01-17T03:07:30.890Z,5.95
2023-01-17T03:08:44.084Z,5.65
2023-01-17T03:10:00.022Z,5.45
2023-01-17T03:11:11.927Z,6.28
2023-01-17T03:12:26.366Z,6.18
2023-01-17T03:13:38.255Z,10.93
2023-01-17T03:14:49.745Z,10.48
2023-01-17T03:16:01.784Z,12.88
2023-01-17T03:17:13.246Z,11.60
2023-01-17T03:18:24.750Z,9.98
2023-01-17T03:19:36.174Z,9.90
2023-01-17T03:20:47.723Z,8.60
2023-01-17T03:21:59.238Z,4.50
2023-01-17T03:23:10.764Z,5.40
2023-01-17T03:24:22.165Z,7.10
2023-01-17T03:25:33.680Z,5.57
2023-01-17T03:26:45.082Z,5.78
2023-01-17T03:27:56.546Z,4.60
2023-01-17T03:29:07.982Z,4.88
2023-01-17T03:30:21.800Z,11.80
2023-01-17T03:31:33.323Z,5.32
2023-01-17T03:32:44.772Z,7.82
2023-01-17T03:33:56.270Z,7.65
2023-01-17T03:35:08.013Z,4.68
2023-01-17T03:36:20.321Z,4.50
2023-01-17T03:37:31.818Z,6.20
2023-01-17T03:38:43.343Z,10.75
2023-01-17T03:39:55.037Z,7.90
2023-01-17T03:41:06.913Z,7.50
2023-01-17T03:42:18.380Z,10.43
2023-01-17T03:43:29.842Z,5.22
2023-01-17T03:44:41.270Z,7.32
2023-01-17T03:45:54.572Z,8.70
2023-01-17T03:47:06.124Z,14.88
2023-01-17T03:48:18.496Z,13.40
2023-01-17T03:49:29.978Z,13.32
2023-01-17T03:50:41.470Z,10.95
2023-01-17T03:51:52.910Z,16.20
2023-01-17T03:53:04.372Z,21.98
2023-01-17T03:54:15.866Z,18.60
2023-01-17T03:55:27.400Z,18.20
2023-01-17T03:56:38.818Z,13.65
2023-01-17T03:57:50.351Z,16.52
2023-01-17T03:59:01.839Z,17.35
2023-01-17T04:00:13.711Z,14.00
2023-01-17T04:01:25.680Z,15.10
2023-01-17T04:02:37.489Z,10.57
2023-01-17T04:03:48.919Z,7.93
2023-01-17T04:05:00.491Z,7.32
2023-01-17T04:06:11.974Z,7.38
2023-01-17T04:07:23.477Z,9.90
2023-01-17T04:08:34.897Z,9.25
2023-01-17T04:09:46.377Z,9.00
2023-01-17T04:10:57.854Z,7.10
2023-01-17T04:12:09.652Z,5.97
2023-01-17T04:13:21.102Z,6.07
2023-01-17T04:14:32.672Z,10.20
2023-01-17T04:15:45.970Z,7.63
2023-01-17T04:16:57.554Z,8.52
2023-01-17T04:18:10.851Z,6.35
2023-01-17T04:19:22.313Z,10.80
2023-01-17T04:20:35.183Z,10.25
2023-01-17T04:21:46.654Z,16.73
2023-01-17T04:22:58.103Z,11.77
2023-01-17T04:24:09.630Z,8.35
2023-01-17T04:25:21.171Z,10.32
2023-01-17T04:26:32.683Z,9.90
2023-01-17T04:27:44.117Z,11.00
2023-01-17T04:28:55.564Z,7.47
2023-01-17T04:30:07.185Z,7.10
2023-01-17T04:31:18.731Z,7.07
2023-01-17T04:32:30.833Z,9.27
2023-01-17T04:33:42.267Z,5.53
2023-01-17T04:34:53.714Z,6.60
2023-01-17T04:36:05.409Z,5.13
2023-01-17T04:37:16.844Z,5.38
2023-01-17T04:38:28.340Z,7.43
2023-01-17T04:39:39.817Z,7.35
2023-01-17T04:40:51.448Z,6.38
2023-01-17T04:42:02.922Z,6.70
2023-01-17T04:43:14.929Z,6.28
2023-01-17T04:44:26.383Z,5.32
2023-01-17T04:45:38.846Z,7.40
2023-01-17T04:46:50.310Z,6.32
2023-01-17T04:48:05.777Z,8.20
2023-01-17T04:49:17.194Z,7.97
2023-01-17T04:50:28.674Z,8.60
2023-01-17T04:51:40.135Z,6.15
2023-01-17T04:52:51.608Z,5.28
2023-01-17T04:54:03.042Z,7.82
2023-01-17T04:55:15.554Z,5.20
2023-01-17T04:56:27.001Z,13.18
2023-01-17T04:57:38.494Z,28.55
2023-01-17T04:58:49.894Z,132.07
2023-01-17T05:00:01.315Z,170.52
2023-01-17T05:01:12.940Z,161.40
2023-01-17T05:02:24.594Z,101.57
2023-01-17T05:03:36.086Z,86.18
2023-01-17T05:04:47.557Z,32.33
2023-01-17T05:05:59.066Z,64.75
2023-01-17T05:07:10.564Z,47.33
2023-01-17T05:08:21.987Z,67.78
2023-01-17T05:09:33.579Z,82.38
2023-01-17T05:10:45.924Z,45.03
2023-01-17T05:11:57.379Z,33.50
2023-01-17T05:13:08.992Z,43.58
2023-01-17T05:14:20.439Z,36.97
2023-01-17T05:15:32.345Z,35.65
2023-01-17T05:16:43.811Z,38.92
2023-01-17T05:17:55.468Z,40.65
2023-01-17T05:19:06.957Z,33.28
2023-01-17T05:20:18.806Z,39.25
2023-01-17T05:21:31.627Z,28.83
2023-01-17T05:22:43.097Z,19.67
2023-01-17T05:23:54.564Z,15.70
2023-01-17T05:25:06.188Z,14.25
2023-01-17T05:26:17.703Z,22.33
2023-01-17T05:27:29.760Z,17.40
2023-01-17T05:28:41.277Z,23.83
2023-01-17T05:29:52.699Z,25.05
2023-01-17T05:31:04.729Z,33.25
2023-01-17T05:32:16.202Z,32.50
2023-01-17T05:33:27.621Z,25.48
2023-01-17T05:34:39.156Z,28.17
2023-01-17T05:35:50.617Z,14.75
2023-01-17T05:37:02.068Z,16.38
2023-01-17T05:38:13.500Z,18.88
2023-01-17T05:39:26.383Z,15.85
2023-01-17T05:40:37.962Z,17.73
2023-01-17T05:41:49.668Z,16.48
2023-01-17T05:43:01.551Z,16.98
2023-01-17T05:44:13.342Z,28.23
2023-01-17T05:45:26.337Z,54.28
2023-01-17T05:46:37.905Z,69.40
2023-01-17T05:47:50.382Z,68.28
2023-01-17T05:49:01.861Z,66.82
2023-01-17T05:50:14.569Z,63.83
2023-01-17T05:51:26.069Z,57.63
2023-01-17T05:52:37.515Z,56.75
2023-01-17T05:53:48.960Z,52.78
2023-01-17T05:55:00.394Z,45.70
2023-01-17T05:56:11.889Z,44.97
2023-01-17T05:57:23.354Z,47.38
2023-01-17T05:58:34.887Z,29.48
2023-01-17T05:59:46.346Z,36.63
2023-01-17T06:00:57.817Z,34.22
2023-01-17T06:02:09.309Z,36.95
2023-01-17T06:03:20.941Z,33.30
2023-01-17T06:04:33.126Z,34.47
2023-01-17T06:05:45.118Z,37.63
2023-01-17T06:06:56.527Z,34.97
2023-01-17T06:08:08.381Z,37.55
2023-01-17T06:09:19.842Z,30.38
2023-01-17T06:10:31.682Z,23.90
2023-01-17T06:11:43.150Z,15.88
2023-01-17T06:13:08.371Z,13.02
2023-01-17T06:14:19.808Z,15.15
2023-01-17T06:15:31.560Z,19.30
2023-01-17T06:16:43.185Z,16.98
2023-01-17T06:17:54.760Z,12.02
2023-01-17T06:19:06.172Z,10.23
2023-01-17T06:20:17.667Z,8.65
2023-01-17T06:21:29.765Z,10.40
2023-01-17T06:22:41.223Z,27.88
2023-01-17T06:23:54.633Z,42.78
2023-01-17T06:25:06.981Z,25.00
2023-01-17T06:26:18.429Z,42.78
2023-01-17T06:27:29.830Z,24.45
2023-01-17T06:28:41.282Z,22.15
2023-01-17T06:29:52.810Z,17.02
2023-01-17T06:31:08.128Z,14.43
2023-01-17T06:32:19.690Z,15.07
2023-01-17T06:33:31.203Z,13.68
2023-01-17T06:34:42.643Z,20.10
2023-01-17T06:35:54.208Z,14.82
2023-01-17T06:37:05.739Z,18.23
2023-01-17T06:38:17.359Z,12.98
2023-01-17T06:39:28.779Z,18.27
2023-01-17T06:40:40.191Z,12.95
2023-01-17T06:41:51.642Z,9.18
2023-01-17T06:43:03.897Z,13.77
2023-01-17T06:44:15.399Z,19.35
2023-01-17T06:45:26.943Z,24.48
2023-01-17T06:46:38.564Z,26.80
2023-01-17T06:47:50.043Z,20.75
2023-01-17T06:49:01.585Z,32.35
2023-01-17T06:50:14.044Z,28.42
2023-01-17T06:51:25.538Z,14.85
2023-01-17T06:52:37.018Z,13.20
2023-01-17T06:53:49.370Z,11.23
2023-01-17T06:55:00.810Z,11.52
2023-01-17T06:56:12.245Z,5.55
2023-01-17T06:57:23.755Z,9.63
2023-01-17T06:58:35.597Z,12.23
2023-01-17T06:59:47.533Z,13.60
2023-01-17T07:00:59.114Z,6.20
2023-01-17T07:02:11.559Z,8.60
2023-01-17T07:03:24.455Z,9.60
2023-01-17T07:04:35.956Z,5.95
2023-01-17T07:05:50.431Z,8.75
2023-01-17T07:07:01.933Z,6.40
2023-01-17T07:08:13.430Z,7.50
2023-01-17T07:09:24.879Z,7.15
2023-01-17T07:10:36.353Z,10.25
2023-01-17T07:11:47.841Z,6.95
2023-01-17T07:13:00.139Z,9.43
2023-01-17T07:14:14.671Z,12.75
2023-01-17T07:15:26.211Z,9.55
2023-01-17T07:16:37.683Z,5.07
2023-01-17T07:17:49.165Z,6.60
2023-01-17T07:19:00.696Z,5.03
2023-01-17T07:20:13.624Z,5.63
2023-01-17T07:21:25.096Z,9.10
2023-01-17T07:22:37.785Z,6.90
2023-01-17T07:23:49.468Z,24.08
2023-01-17T07:25:01.085Z,21.35
2023-01-17T07:26:12.530Z,14.05
2023-01-17T07:27:27.881Z,11.23
2023-01-17T07:28:39.315Z,12.90
2023-01-17T07:29:51.801Z,10.68
2023-01-17T07:31:06.661Z,8.55
2023-01-17T07:32:18.452Z,11.80
2023-01-17T07:33:29.879Z,7.18
2023-01-17T07:34:41.401Z,15.15
2023-01-17T07:35:52.874Z,13.63
2023-01-17T07:37:04.291Z,12.48
2023-01-17T07:38:16.845Z,9.57
2023-01-17T07:39:28.327Z,6.85
2023-01-17T07:40:42.406Z,12.13
2023-01-17T07:41:54.698Z,9.98
2023-01-17T07:43:13.659Z,10.45
2023-01-17T07:44:25.193Z,7.75
2023-01-17T07:45:36.590Z,6.07
2023-01-17T07:46:48.186Z,8.27
2023-01-17T07:47:59.665Z,8.88
2023-01-17T07:49:11.100Z,7.25
2023-01-17T07:50:22.577Z,9.15
2023-01-17T07:51:34.101Z,28.58
2023-01-17T07:52:51.773Z,24.83
2023-01-17T07:54:03.645Z,8.90
2023-01-17T07:55:15.217Z,7.60
2023-01-17T07:56:26.768Z,10.40
2023-01-17T07:57:38.303Z,8.95
2023-01-17T07:58:50.097Z,11.70
2023-01-17T08:00:01.614Z,10.05
2023-01-17T08:01:13.842Z,6.22
2023-01-17T08:02:25.411Z,12.23
2023-01-17T08:03:39.959Z,8.40
2023-01-17T08:04:51.558Z,5.57
2023-01-17T08:06:03.478Z,6.20
2023-01-17T08:07:15.419Z,10.55
2023-01-17T08:08:27.683Z,5.85
2023-01-17T08:09:39.602Z,9.68
2023-01-17T08:10:51.655Z,12.43
2023-01-17T08:12:03.146Z,15.32
2023-01-17T08:13:14.712Z,21.40
2023-01-17T08:14:26.169Z,6.97
2023-01-17T08:15:37.663Z,8.98
2023-01-17T08:16:49.203Z,19.77
2023-01-17T08:18:00.696Z,19.77
2023-01-17T08:19:12.172Z,14.30
2023-01-17T08:20:26.119Z,8.60
2023-01-17T08:21:39.132Z,10.27
2023-01-17T08:22:54.685Z,6.03
2023-01-17T08:24:06.384Z,7.32
2023-01-17T08:25:17.839Z,9.57
2023-01-17T08:26:29.318Z,4.95
2023-01-17T08:27:40.801Z,5.53
2023-01-17T08:28:56.731Z,9.68
2023-01-17T08:30:09.808Z,5.43
2023-01-17T08:31:21.350Z,5.13
2023-01-17T08:32:33.107Z,5.25
2023-01-17T08:33:44.542Z,3.38
2023-01-17T08:34:57.205Z,4.45
2023-01-17T08:36:08.654Z,8.57
2023-01-17T08:37:20.157Z,9.43
2023-01-17T08:38:31.616Z,8.55
2023-01-17T08:39:43.074Z,8.98
2023-01-17T08:40:54.876Z,12.55
2023-01-17T08:42:06.428Z,11.38
2023-01-17T08:43:19.074Z,15.40
2023-01-17T08:44:30.667Z,12.60
2023-01-17T08:45:45.317Z,11.13
2023-01-17T08:46:56.772Z,38.80
2023-01-17T08:48:08.261Z,12.82
2023-01-17T08:49:19.716Z,19.98
2023-01-17T08:50:31.162Z,45.38
2023-01-17T08:51:42.616Z,93.10
2023-01-17T08:52:59.114Z,33.15
2023-01-17T08:54:14.625Z,22.10
2023-01-17T08:55:26.286Z,23.08
2023-01-17T08:56:37.908Z,16.75
2023-01-17T08:57:49.374Z,20.63
2023-01-17T08:59:01.611Z,14.00
2023-01-17T09:00:13.199Z,19.98
2023-01-17T09:01:24.704Z,22.23
2023-01-17T09:02:36.485Z,21.40
2023-01-17T09:03:54.080Z,21.70
2023-01-17T09:05:05.922Z,25.83
2023-01-17T09:06:17.582Z,22.23
2023-01-17T09:07:29.169Z,26.20
2023-01-17T09:08:41.241Z,112.30
2023-01-17T09:09:53.021Z,47.45
2023-01-17T09:11:08.880Z,25.98
2023-01-17T09:12:22.353Z,12.18
2023-01-17T09:13:33.810Z,6.82
2023-01-17T09:14:45.253Z,18.40
2023-01-17T09:15:57.445Z,18.60
2023-01-17T09:17:09.106Z,7.63
2023-01-17T09:18:20.598Z,15.73
2023-01-17T09:19:32.117Z,7.35
2023-01-17T09:20:43.694Z,11.93
2023-01-17T09:21:55.564Z,7.82
2023-01-17T09:23:07.459Z,18.75
2023-01-17T09:24:19.623Z,16.42
2023-01-17T09:25:31.187Z,17.88
2023-01-17T09:26:42.858Z,15.30
2023-01-17T09:27:54.505Z,24.85
2023-01-17T09:29:06.092Z,12.23
2023-01-17T09:30:17.898Z,7.05
2023-01-17T09:31:30.099Z,25.35
2023-01-17T09:32:41.739Z,32.58
2023-01-17T09:33:53.938Z,31.15
2023-01-17T09:35:07.511Z,20.55
2023-01-17T09:36:20.151Z,21.90
2023-01-17T09:37:31.783Z,23.88
2023-01-17T09:38:43.655Z,19.52
2023-01-17T09:39:55.071Z,55.28
2023-01-17T09:41:21.708Z,31.10
2023-01-17T09:42:33.172Z,10.40
2023-01-17T09:43:51.150Z,45.63
2023-01-17T09:45:02.752Z,26.85
2023-01-17T09:46:22.684Z,19.05
2023-01-17T09:47:34.314Z,39.58
2023-01-17T09:48:46.290Z,24.55
2023-01-17T09:50:02.694Z,18.17
2023-01-17T09:51:21.292Z,13.68
2023-01-17T09:52:32.830Z,57.65
2023-01-17T09:53:44.336Z,36.00
2023-01-17T09:54:55.834Z,21.42
2023-01-17T09:56:15.804Z,30.73
2023-01-17T09:57:39.426Z,43.92
2023-01-17T09:58:56.840Z,27.92
2023-01-17T10:00:26.659Z,15.20
2023-01-17T10:01:47.036Z,16.88
2023-01-17T10:02:58.603Z,13.15
2023-01-17T10:04:29.098Z,11.20
2023-01-17T10:06:03.225Z,15.93
2023-01-17T10:07:33.081Z,12.82
2023-01-17T10:09:03.967Z,14.77
2023-01-17T10:10:34.189Z,21.38
2023-01-17T10:11:51.748Z,6.80
2023-01-17T10:13:03.223Z,7.47
2023-01-17T10:14:14.733Z,7.70
2023-01-17T10:15:35.267Z,9.70
2023-01-17T10:16:46.707Z,12.85
2023-01-17T10:18:29.187Z,10.32
2023-01-17T10:19:49.800Z,9.18
2023-01-17T10:21:10.953Z,18.33
2023-01-17T10:22:22.478Z,22.20
2023-01-17T10:23:57.736Z,37.72
2023-01-17T10:25:09.206Z,12.60
2023-01-17T10:26:26.934Z,12.00
2023-01-17T10:27:40.490Z,13.48
2023-01-17T10:28:53.084Z,13.93
2023-01-17T10:30:13.784Z,5.80
2023-01-17T10:31:26.401Z,5.47
2023-01-17T10:32:47.366Z,11.38
2023-01-17T10:34:12.493Z,3.40
2023-01-17T10:35:27.028Z,3.60
2023-01-17T10:36:43.761Z,18.35
2023-01-17T10:37:57.233Z,31.23
2023-01-17T10:39:16.337Z,19.35
2023-01-17T10:40:42.870Z,17.88
2023-01-17T10:41:55.678Z,6.15
2023-01-17T10:43:33.487Z,6.28
2023-01-17T10:44:53.228Z,4.03
2023-01-17T10:46:05.047Z,1.58
2023-01-17T10:47:20.956Z,10.57
2023-01-17T10:48:58.843Z,15.48
2023-01-17T10:50:11.694Z,11.20
2023-01-17T10:51:23.283Z,7.33
2023-01-17T10:52:40.744Z,3.75
2023-01-17T10:54:12.279Z,9.02
2023-01-17T10:55:36.425Z,3.47
2023-01-17T10:56:48.119Z,6.60
2023-01-17T10:57:59.634Z,9.00
2023-01-17T10:59:23.323Z,7.55
2023-01-17T11:00:52.852Z,10.85
2023-01-17T11:02:12.824Z,7.43
2023-01-17T11:03:24.478Z,6.05
2023-01-17T11:04:37.193Z,5.33
2023-01-17T11:06:08.349Z,7.53
2023-01-17T11:07:19.936Z,4.57
2023-01-17T11:08:50.636Z,6.80
2023-01-17T11:10:02.148Z,7.72
2023-01-17T11:11:13.709Z,4.28
2023-01-17T11:12:30.233Z,12.40
2023-01-17T11:13:41.885Z,4.80
2023-01-17T11:14:58.072Z,1.83
2023-01-17T11:16:10.647Z,3.60
2023-01-17T11:17:22.171Z,0.70
2023-01-17T11:18:35.394Z,5.88
2023-01-17T11:19:51.319Z,10.18
2023-01-17T11:21:17.812Z,5.03
2023-01-17T11:22:30.073Z,8.05
2023-01-17T11:23:42.835Z,5.03
2023-01-17T11:24:55.849Z,3.50
2023-01-17T11:26:10.252Z,2.17
2023-01-17T11:27:29.360Z,3.80
2023-01-17T11:28:41.128Z,5.15
2023-01-17T11:30:03.928Z,1.97
2023-01-17T11:31:16.642Z,10.82
2023-01-17T11:32:32.592Z,10.38
2023-01-17T11:33:47.828Z,6.82
2023-01-17T11:35:07.783Z,5.37
2023-01-17T11:36:32.847Z,4.13
2023-01-17T11:37:49.963Z,3.75
2023-01-17T11:39:05.966Z,2.42
2023-01-17T11:40:20.431Z,5.07
2023-01-17T11:41:36.716Z,4.50
2023-01-17T11:42:59.107Z,6.15
2023-01-17T11:44:24.169Z,11.40
2023-01-17T11:45:35.737Z,2.33
2023-01-17T11:46:47.448Z,11.25
2023-01-17T11:48:07.812Z,2.10
2023-01-17T11:49:23.823Z,5.93
2023-01-17T11:50:37.477Z,4.15
2023-01-17T11:51:49.068Z,5.25
2023-01-17T11:53:11.625Z,2.20
2023-01-17T11:54:28.133Z,2.80
2023-01-17T11:55:39.997Z,4.60
2023-01-17T11:56:56.828Z,1.37
2023-01-17T11:58:13.326Z,4.30
2023-01-17T11:59:31.676Z,2.07
2023-01-17T12:00:46.111Z,3.25
2023-01-17T12:02:03.493Z,3.08
2023-01-17T12:03:41.079Z,0.77
2023-01-17T12:05:00.208Z,1.42
2023-01-17T12:06:20.793Z,3.92
2023-01-17T12:07:35.035Z,5.10
2023-01-17T12:08:51.389Z,6.60
2023-01-17T12:10:19.371Z,6.15
2023-01-17T12:12:08.616Z,9.98
2023-01-17T12:13:45.585Z,7.70
2023-01-17T12:15:16.105Z,8.13
2023-01-17T12:16:33.477Z,4.45
2023-01-17T12:17:53.836Z,3.05
2023-01-17T12:19:23.981Z,4.85
2023-01-17T12:20:48.558Z,8.27
2023-01-17T12:22:13.765Z,4.70
2023-01-17T12:23:25.184Z,7.05
2023-01-17T12:24:39.480Z,3.05
2023-01-17T12:26:05.871Z,2.42
2023-01-17T12:27:17.329Z,10.50
2023-01-17T12:28:38.450Z,14.15
2023-01-17T12:29:58.688Z,4.47
2023-01-17T12:31:19.390Z,10.45
2023-01-17T12:32:30.931Z,3.10
2023-01-17T12:33:54.593Z,2.08
2023-01-17T12:35:11.768Z,4.97
2023-01-17T12:36:31.072Z,2.78
2023-01-17T12:37:52.673Z,2.35
2023-01-17T12:39:11.999Z,4.32
2023-01-17T12:40:30.282Z,3.42
2023-01-17T12:41:50.910Z,3.03
2023-01-17T12:43:11.357Z,2.83
2023-01-17T12:44:41.473Z,4.78
2023-01-17T12:45:54.703Z,2.60
2023-01-17T12:47:06.374Z,4.40
2023-01-17T12:48:19.040Z,4.30
2023-01-17T12:49:46.717Z,7.43
2023-01-17T12:51:01.523Z,6.43
2023-01-17T12:52:12.938Z,11.63
2023-01-17T12:53:30.507Z,5.18
2023-01-17T12:54:44.599Z,8.05
2023-01-17T12:56:23.934Z,13.85
2023-01-17T12:57:39.934Z,3.55
2023-01-17T12:58:53.815Z,3.28
2023-01-17T13:00:08.379Z,2.35
2023-01-17T13:01:23.139Z,11.05
2023-01-17T13:02:38.952Z,6.47
2023-01-17T13:03:58.318Z,7.72
2023-01-17T13:05:15.855Z,2.50
2023-01-17T13:06:46.062Z,4.68
2023-01-17T13:08:09.647Z,3.47
2023-01-17T13:09:22.600Z,4.53
2023-01-17T13:10:54.531Z,6.00
2023-01-17T13:12:14.011Z,2.83
2023-01-17T13:13:26.782Z,2.08
2023-01-17T13:14:39.608Z,4.63
2023-01-17T13:15:54.276Z,1.77
2023-01-17T13:17:08.798Z,3.35
2023-01-17T13:18:26.003Z,2.35
2023-01-17T13:19:56.325Z,4.72
2023-01-17T13:21:22.368Z,4.05
2023-01-17T13:22:34.285Z,6.57
2023-01-17T13:24:04.124Z,10.60
2023-01-17T13:25:39.650Z,2.75
2023-01-17T13:26:51.119Z,3.30
2023-01-17T13:28:09.250Z,2.00
2023-01-17T13:29:21.042Z,3.47
2023-01-17T13:30:35.295Z,7.72
2023-01-17T13:31:49.839Z,5.93
2023-01-17T13:33:03.391Z,3.70
2023-01-17T13:34:24.720Z,4.53
2023-01-17T13:35:43.623Z,6.85
2023-01-17T13:37:07.417Z,5.00
2023-01-17T13:38:18.836Z,6.18
2023-01-17T13:39:33.366Z,1.33
2023-01-17T13:41:01.668Z,1.75
2023-01-17T13:42:13.133Z,2.42
2023-01-17T13:43:30.452Z,7.03
2023-01-17T13:44:42.163Z,1.30
2023-01-17T13:45:54.990Z,6.38
2023-01-17T13:47:27.210Z,4.10
2023-01-17T13:48:40.767Z,7.55
2023-01-17T13:49:56.415Z,9.63
2023-01-17T13:51:08.446Z,10.55
2023-01-17T13:52:19.905Z,12.57
2023-01-17T13:53:34.145Z,6.85
2023-01-17T13:54:46.854Z,4.25
2023-01-17T13:56:18.622Z,6.10
2023-01-17T13:57:33.009Z,8.20
2023-01-17T13:58:48.797Z,4.55
2023-01-17T14:00:23.199Z,5.20
2023-01-17T14:01:38.522Z,14.55
2023-01-17T14:02:51.487Z,9.38
2023-01-17T14:04:04.554Z,6.60
2023-01-17T14:05:16.223Z,3.72
2023-01-17T14:06:36.741Z,4.10
2023-01-17T14:07:49.819Z,5.88
2023-01-17T14:09:19.926Z,8.43
2023-01-17T14:10:34.722Z,4.35
2023-01-17T14:11:52.269Z,3.08
2023-01-17T14:13:05.069Z,2.40
2023-01-17T14:14:34.838Z,4.72
2023-01-17T14:15:49.956Z,4.82
2023-01-17T14:17:23.378Z,3.00
2023-01-17T14:18:41.880Z,9.05
2023-01-17T14:19:54.602Z,7.10
2023-01-17T14:21:09.909Z,6.97
2023-01-17T14:22:21.694Z,9.15
2023-01-17T14:23:37.641Z,7.63
2023-01-17T14:24:58.606Z,10.57
2023-01-17T14:26:17.880Z,18.85
2023-01-17T14:27:32.315Z,25.17
2023-01-17T14:28:43.891Z,16.55
2023-01-17T14:29:59.432Z,16.30
2023-01-17T14:31:11.052Z,15.93
2023-01-17T14:32:33.202Z,9.80
2023-01-17T14:33:44.840Z,13.13
2023-01-17T14:34:57.354Z,4.30
2023-01-17T14:36:29.534Z,4.82
2023-01-17T14:37:51.189Z,6.55
2023-01-17T14:39:02.820Z,7.32
2023-01-17T14:40:18.832Z,9.88
2023-01-17T14:41:30.371Z,6.40
2023-01-17T14:42:42.535Z,4.78
2023-01-17T14:43:54.504Z,10.63
2023-01-17T14:45:07.750Z,7.28
2023-01-17T14:46:36.205Z,10.38
2023-01-17T14:47:47.736Z,17.65
2023-01-17T14:49:04.058Z,10.10
2023-01-17T14:50:15.600Z,11.55
2023-01-17T14:51:27.157Z,8.85
2023-01-17T14:52:38.890Z,10.73
2023-01-17T14:53:54.551Z,8.18
2023-01-17T14:55:15.466Z,8.38
2023-01-17T14:56:27.893Z,10.93
2023-01-17T14:57:39.371Z,9.80
2023-01-17T14:59:03.935Z,14.40
2023-01-17T15:00:18.580Z,9.15
2023-01-17T15:01:30.172Z,11.57
2023-01-17T15:02:43.163Z,4.85
2023-01-17T15:03:55.297Z,6.45
2023-01-17T15:05:07.008Z,10.13
2023-01-17T15:06:20.076Z,42.75
2023-01-17T15:07:32.527Z,16.67
2023-01-17T15:08:44.206Z,27.52
2023-01-17T15:09:55.726Z,24.35
2023-01-17T15:11:09.496Z,8.20
2023-01-17T15:12:21.541Z,17.15
2023-01-17T15:13:43.725Z,16.63
2023-01-17T15:14:59.052Z,11.13
2023-01-17T15:16:21.218Z,17.42
2023-01-17T15:17:32.696Z,19.90
2023-01-17T15:18:44.196Z,13.70
2023-01-17T15:19:56.929Z,11.80
2023-01-17T15:21:13.488Z,15.88
2023-01-17T15:22:26.083Z,11.25
2023-01-17T15:23:39.192Z,8.88
2023-01-17T15:24:50.881Z,10.05
2023-01-17T15:26:03.468Z,7.47
2023-01-17T15:27:16.544Z,5.15
2023-01-17T15:28:28.967Z,23.00
2023-01-17T15:29:41.106Z,29.48
2023-01-17T15:31:03.751Z,21.80
2023-01-17T15:32:20.176Z,11.10
2023-01-17T15:33:32.859Z,3.40
2023-01-17T15:34:45.760Z,4.60
2023-01-17T15:36:01.499Z,2.95
2023-01-17T15:37:22.551Z,2.33
2023-01-17T15:38:39.039Z,5.25
2023-01-17T15:39:51.128Z,27.25
2023-01-17T15:41:10.406Z,23.73
2023-01-17T15:42:23.938Z,28.05
2023-01-17T15:43:36.181Z,39.70
2023-01-17T15:44:52.662Z,30.85
2023-01-17T15:46:04.980Z,34.47
2023-01-17T15:47:28.919Z,22.48
2023-01-17T15:48:41.941Z,28.83
2023-01-17T15:49:53.550Z,23.63
2023-01-17T15:51:05.243Z,12.98
2023-01-17T15:52:16.978Z,13.45
2023-01-17T15:53:31.081Z,18.00
2023-01-17T15:54:55.705Z,11.68
2023-01-17T15:56:25.888Z,21.13
2023-01-17T15:57:37.720Z,17.42
2023-01-17T15:58:50.212Z,19.75
2023-01-17T16:00:01.769Z,34.60
2023-01-17T16:01:18.014Z,28.35
2023-01-17T16:02:35.862Z,44.03
2023-01-17T16:03:54.595Z,126.80
2023-01-17T16:05:33.586Z,84.72
2023-01-17T16:06:47.799Z,62.60
2023-01-17T16:08:06.088Z,61.30
2023-01-17T16:09:22.306Z,46.90
2023-01-17T16:10:36.422Z,35.85
2023-01-17T16:11:47.924Z,49.00
2023-01-17T16:12:59.717Z,27.83
2023-01-17T16:14:11.173Z,25.95
2023-01-17T16:15:26.080Z,21.45
2023-01-17T16:16:37.820Z,19.95
2023-01-17T16:17:51.342Z,16.48
2023-01-17T16:19:03.445Z,22.60
2023-01-17T16:20:19.729Z,16.48
2023-01-17T16:21:31.971Z,8.25
2023-01-17T16:22:46.398Z,21.35
2023-01-17T16:23:59.174Z,24.77
2023-01-17T16:25:14.725Z,18.33
2023-01-17T16:26:26.469Z,13.43
2023-01-17T16:27:39.541Z,46.78
2023-01-17T16:28:51.270Z,48.20
2023-01-17T16:30:02.725Z,15.63
2023-01-17T16:31:14.320Z,16.55
2023-01-17T16:32:27.925Z,14.45